Time;durP1;ratioP1;P1;durP2;ratioP2;P2;SDS_P1;SDS_P2;PMS_P1;PMS_P2;Temp;Humidity;BMP_temperature;BMP_pressure;BME280_temperature;BME280_humidity;BME280_pressure;Samples;Min_cycle;Max_cycle;Signal;HPM_P1;HPM_P2
2021/08/29 00:01:07;;;;;;;33.00;28.70;;;;;;;12.92;74.08;100250.56;116785;1202;21796;-81
2021/08/29 00:03:36;;;;;;;29.50;26.40;;;;;;;12.92;74.20;100250.06;117410;1198;21833;-81
2021/08/29 00:06:06;;;;;;;31.80;26.80;;;;;;;12.89;74.15;100250.48;118075;1195;22109;-81
2021/08/29 00:08:36;;;;;;;33.00;29.50;;;;;;;12.89;74.27;100249.55;118302;1190;22096;-82
2021/08/29 00:11:05;;;;;;;31.40;27.20;;;;;;;12.89;74.30;100250.67;118331;1194;21807;-81
2021/08/29 00:13:34;;;;;;;32.20;27.20;;;;;;;12.86;74.14;100247.33;118231;1189;22154;-81
2021/08/29 00:16:04;;;;;;;32.30;27.00;;;;;;;12.86;74.28;100248.36;118283;1196;22134;-82
2021/08/29 00:18:34;;;;;;;34.30;28.20;;;;;;;12.86;74.33;100248.89;118211;1195;21736;-81
2021/08/29 00:21:03;;;;;;;32.40;27.50;;;;;;;12.90;74.43;100253.16;118169;1193;21835;-82
2021/08/29 00:23:32;;;;;;;28.90;25.90;;;;;;;12.88;74.56;100249.29;118213;1192;21785;-82
2021/08/29 00:26:01;;;;;;;30.40;26.30;;;;;;;12.87;74.63;100244.49;118204;1194;21808;-81
2021/08/29 00:28:30;;;;;;;33.90;27.60;;;;;;;12.93;74.70;100248.44;118289;1192;22107;-80
2021/08/29 00:30:59;;;;;;;32.30;28.90;;;;;;;12.94;74.66;100247.92;118202;1194;22230;-81
2021/08/29 00:33:29;;;;;;;34.80;31.20;;;;;;;12.91;74.64;100242.76;118233;1193;21689;-80
2021/08/29 00:35:58;;;;;;;35.80;31.00;;;;;;;12.91;74.54;100238.71;118333;1191;21786;-80
2021/08/29 00:38:28;;;;;;;35.80;31.80;;;;;;;12.90;74.74;100235.52;118315;1193;21799;-80
2021/08/29 00:40:57;;;;;;;33.00;29.60;;;;;;;12.89;75.06;100229.59;118105;1195;22121;-81
2021/08/29 00:43:27;;;;;;;34.00;30.40;;;;;;;12.92;75.33;100228.13;118015;1198;21853;-81
2021/08/29 00:45:56;;;;;;;33.50;30.00;;;;;;;12.99;75.47;100230.66;117396;1201;21785;-80
2021/08/29 00:48:26;;;;;;;36.50;31.10;;;;;;;13.04;75.37;100230.95;117413;1201;21813;-81
2021/08/29 00:50:55;;;;;;;32.70;29.40;;;;;;;13.04;75.18;100229.88;117930;1197;21833;-80
2021/08/29 00:53:25;;;;;;;32.80;29.30;;;;;;;13.02;75.17;100229.10;117334;1201;22331;-80
2021/08/29 00:55:54;;;;;;;33.20;29.80;;;;;;;13.03;75.33;100229.52;117412;1198;21858;-82
2021/08/29 00:58:28;;;;;;;33.70;29.50;;;;;;;13.11;75.41;100235.56;117382;1201;21776;-81
2021/08/29 01:01:00;;;;;;;33.80;30.30;;;;;;;13.09;75.29;100228.19;117453;1198;21854;-82
2021/08/29 01:03:36;;;;;;;33.10;29.50;;;;;;;13.09;75.34;100231.02;118073;1196;21750;-82
2021/08/29 01:06:22;;;;;;;33.90;30.30;;;;;;;13.11;75.63;100229.33;118190;1195;21779;-82
2021/08/29 01:09:15;;;;;;;33.90;30.30;;;;;;;13.14;75.65;100237.60;117964;1198;22229;-82
2021/08/29 01:11:51;;;;;;;34.90;31.20;;;;;;;13.14;75.51;100233.64;117994;1197;21809;-82
2021/08/29 01:14:36;;;;;;;35.60;30.30;;;;;;;13.17;75.23;100243.88;117538;1196;21948;-83
2021/08/29 01:17:05;;;;;;;32.10;28.60;;;;;;;13.13;75.29;100238.98;117404;1201;22236;-81
2021/08/29 01:19:49;;;;;;;30.20;27.10;;;;;;;13.13;75.20;100236.42;117298;1201;21848;-82
2021/08/29 01:22:19;;;;;;;30.90;27.40;;;;;;;13.15;75.07;100244.82;117299;1201;22269;-82
2021/08/29 01:24:50;;;;;;;33.10;29.60;;;;;;;13.09;75.18;100236.48;116782;1201;21790;-81
2021/08/29 01:27:29;;;;;;;33.90;30.60;;;;;;;13.13;75.24;100245.11;117058;1201;21819;-83
2021/08/29 01:30:01;;;;;;;34.90;30.50;;;;;;;13.11;75.15;100252.38;117312;1201;21861;-82
2021/08/29 01:32:32;;;;;;;32.70;29.30;;;;;;;13.04;75.03;100245.08;116799;1201;22243;-82
2021/08/29 01:35:05;;;;;;;32.80;29.40;;;;;;;12.95;75.02;100242.64;116811;1203;21734;-82
2021/08/29 01:37:43;;;;;;;31.10;28.10;;;;;;;12.88;75.08;100245.94;117320;1200;21850;-81
2021/08/29 01:40:15;;;;;;;31.70;28.40;;;;;;;12.79;75.21;100243.17;117248;1199;21804;-83
2021/08/29 01:42:45;;;;;;;31.30;28.10;;;;;;;12.78;75.56;100245.52;117452;1196;21811;-82
2021/08/29 01:45:16;;;;;;;29.80;25.70;;;;;;;12.81;75.75;100253.19;118052;1195;22146;-81
2021/08/29 01:47:47;;;;;;;29.50;26.60;;;;;;;12.79;75.86;100240.44;117957;1195;21788;-82
2021/08/29 01:50:21;;;;;;;30.70;27.50;;;;;;;12.82;76.06;100245.12;118034;1197;21822;-81
2021/08/29 01:53:01;;;;;;;29.60;26.60;;;;;;;12.89;76.30;100247.61;117581;1198;21860;-83
2021/08/29 01:55:52;;;;;;;29.60;26.50;;;;;;;12.95;76.35;100243.41;117439;1200;21856;-82
2021/08/29 01:58:28;;;;;;;29.90;26.80;;;;;;;13.01;76.31;100247.19;117251;1200;21858;-82
2021/08/29 02:01:07;;;;;;;30.40;27.20;;;;;;;13.03;76.28;100235.70;116728;1205;21783;-82
2021/08/29 02:03:41;;;;;;;29.60;26.50;;;;;;;13.10;76.20;100247.38;116619;1204;21837;-82
2021/08/29 02:06:34;;;;;;;29.40;26.20;;;;;;;13.11;75.97;100248.42;116640;1203;22265;-82
2021/08/29 02:09:08;;;;;;;31.20;25.30;;;;;;;13.10;76.00;100243.14;116693;1204;21735;-81
2021/08/29 02:11:51;;;;;;;29.30;26.50;;;;;;;13.09;75.97;100239.70;116771;1204;21857;-83
2021/08/29 02:14:43;;;;;;;28.50;25.80;;;;;;;13.10;76.05;100238.16;117209;1198;21788;-82
2021/08/29 02:17:14;;;;;;;29.10;26.20;;;;;;;13.08;76.03;100236.63;117268;1202;21797;-82
2021/08/29 02:19:46;;;;;;;29.50;26.50;;;;;;;13.11;76.06;100240.00;117740;1200;21860;-82
2021/08/29 02:22:16;;;;;;;29.80;26.70;;;;;;;13.13;76.05;100233.95;118014;1193;21872;-81
2021/08/29 02:24:48;;;;;;;27.50;24.70;;;;;;;13.11;75.94;100230.45;118029;1195;21805;-81
2021/08/29 02:27:19;;;;;;;30.90;27.80;;;;;;;13.06;75.84;100228.47;118051;1198;21806;-81
2021/08/29 02:29:49;;;;;;;29.40;26.60;;;;;;;13.04;76.02;100229.49;117959;1198;21818;-81
2021/08/29 02:32:20;;;;;;;28.10;25.20;;;;;;;13.07;76.13;100232.41;117973;1199;21831;-81
2021/08/29 02:34:50;;;;;;;30.00;26.70;;;;;;;13.09;76.09;100238.98;117781;1198;22348;-81
2021/08/29 02:37:26;;;;;;;29.00;26.30;;;;;;;13.09;76.10;100234.20;117321;1199;22284;-81
2021/08/29 02:40:03;;;;;;;26.30;23.80;;;;;;;13.09;76.02;100233.02;117289;1201;22283;-81
2021/08/29 02:42:33;;;;;;;28.10;25.00;;;;;;;13.08;76.26;100228.31;117390;1198;21811;-81
2021/08/29 02:45:12;;;;;;;28.10;25.30;;;;;;;13.13;76.28;100226.67;117817;1198;21846;-81
2021/08/29 02:47:42;;;;;;;28.40;25.00;;;;;;;13.14;76.18;100228.09;118065;1196;21808;-81
2021/08/29 02:50:13;;;;;;;26.20;23.60;;;;;;;13.12;76.34;100223.21;118022;1198;21834;-80
2021/08/29 02:52:46;;;;;;;28.60;25.80;;;;;;;13.16;76.23;100229.05;117987;1198;22244;-82
2021/08/29 02:55:18;;;;;;;28.20;25.20;;;;;;;13.13;76.23;100222.89;118079;1195;21841;-82
2021/08/29 02:57:56;;;;;;;26.70;23.20;;;;;;;13.14;76.29;100222.78;118190;1195;22093;-81
2021/08/29 03:00:45;;;;;;;28.50;25.10;;;;;;;13.16;76.32;100225.54;118071;1196;22251;-82
2021/08/29 03:03:24;;;;;;;28.00;24.30;;;;;;;13.15;76.33;100216.67;117473;1198;21837;-81
2021/08/29 03:05:54;;;;;;;27.40;24.60;;;;;;;13.18;76.28;100216.53;117942;1199;21827;-82
2021/08/29 03:08:24;;;;;;;26.90;24.10;;;;;;;13.18;76.37;100208.91;117977;1194;21808;-81
2021/08/29 03:10:53;;;;;;;27.10;24.30;;;;;;;13.20;76.34;100203.21;118046;1196;22126;-82
2021/08/29 03:13:27;;;;;;;29.80;26.30;;;;;;;13.20;76.26;100201.73;117464;1198;21728;-82
2021/08/29 03:16:07;;;;;;;27.60;24.70;;;;;;;13.23;76.24;100202.89;117452;1200;21809;-82
2021/08/29 03:18:48;;;;;;;28.10;25.10;;;;;;;13.20;76.31;100199.83;117692;1198;21821;-82
2021/08/29 03:21:31;;;;;;;26.40;23.80;;;;;;;13.22;76.27;100199.38;117924;1199;21876;-82
2021/08/29 03:24:01;;;;;;;25.40;23.00;;;;;;;13.23;76.26;100202.65;117712;1198;21785;-82
2021/08/29 03:26:30;;;;;;;27.10;24.10;;;;;;;13.24;76.43;100202.14;117969;1199;22222;-82
2021/08/29 03:29:08;;;;;;;26.00;23.50;;;;;;;13.23;76.41;100198.44;117282;1201;21778;-82
2021/08/29 03:31:40;;;;;;;;;;;;;;;13.24;76.45;100202.78;117337;1199;21855;-82
2021/08/29 03:34:14;;;;;;;27.50;24.80;;;;;;;13.19;76.62;100202.64;117393;1195;21802;-82
2021/08/29 03:36:45;;;;;;;26.90;24.10;;;;;;;13.15;76.68;100197.20;117344;1200;21790;-82
2021/08/29 03:39:18;;;;;;;27.30;24.60;;;;;;;13.16;76.64;100193.63;117461;1200;21815;-83
2021/08/29 03:41:49;;;;;;;27.90;25.00;;;;;;;13.19;76.71;100197.30;117928;1194;21863;-82
2021/08/29 03:44:19;;;;;;;28.20;25.20;;;;;;;13.21;76.52;100197.93;117347;1198;21812;-83
2021/08/29 03:46:49;;;;;;;27.50;24.70;;;;;;;13.21;76.46;100193.59;116945;1198;21854;-83
2021/08/29 03:49:46;;;;;;;26.30;23.60;;;;;;;13.19;76.45;100189.73;117008;1204;21713;-83
2021/08/29 03:52:20;;;;;;;24.80;22.30;;;;;;;13.18;76.51;100193.16;116774;1204;21845;-82
2021/08/29 03:55:19;;;;;;;26.10;23.60;;;;;;;13.16;76.45;100188.94;116856;1204;21908;-84
2021/08/29 03:57:57;;;;;;;24.60;22.10;;;;;;;13.15;76.49;100188.02;116678;1203;22129;-82
2021/08/29 04:00:34;;;;;;;26.60;23.70;;;;;;;13.17;76.44;100191.23;116662;1202;21799;-82
2021/08/29 04:03:08;;;;;;;27.50;24.50;;;;;;;13.13;76.46;100187.60;116777;1201;21733;-82
2021/08/29 04:06:03;;;;;;;26.80;24.10;;;;;;;13.16;76.54;100191.34;117736;1200;21768;-82
2021/08/29 04:08:40;;;;;;;25.80;23.40;;;;;;;13.14;76.64;100192.30;117925;1195;21875;-82
2021/08/29 04:11:10;;;;;;;24.70;22.10;;;;;;;13.16;76.82;100194.65;118146;1195;22323;-82
2021/08/29 04:13:41;;;;;;;26.00;23.40;;;;;;;13.23;76.86;100202.81;118016;1198;21863;-82
2021/08/29 04:16:16;;;;;;;27.80;24.90;;;;;;;13.27;76.92;100207.92;117980;1196;21863;-82
2021/08/29 04:18:50;;;;;;;29.20;26.00;;;;;;;13.29;76.95;100211.69;117438;1196;22481;-82
2021/08/29 04:21:24;;;;;;;;;;;;;;;13.32;76.96;100214.14;117042;1197;21854;-82
2021/08/29 04:23:54;;;;;;;26.00;23.40;;;;;;;13.28;77.14;100215.65;117260;1195;21807;-82
2021/08/29 04:26:30;;;;;;;27.90;25.20;;;;;;;13.32;77.21;100217.45;116642;1203;21711;-82
2021/08/29 04:29:00;;;;;;;27.20;23.10;;;;;;;13.35;77.21;100216.54;116629;1205;22225;-82
2021/08/29 04:31:32;;;;;;;23.90;21.50;;;;;;;13.41;77.12;100216.23;116619;1205;22160;-82
2021/08/29 04:34:08;;;;;;;25.30;22.60;;;;;;;13.48;77.11;100222.29;116615;1202;21768;-82
2021/08/29 04:36:46;;;;;;;25.50;22.70;;;;;;;13.51;77.10;100221.34;116713;1201;22139;-82
2021/08/29 04:39:36;;;;;;;36.50;22.70;;;;;;;13.54;77.08;100223.23;116840;1201;21707;-83
2021/08/29 04:42:06;;;;;;;22.90;20.60;;;;;;;13.55;77.14;100219.72;116770;1202;21689;-82
2021/08/29 04:44:36;;;;;;;23.30;21.00;;;;;;;13.62;77.19;100223.85;117009;1201;21766;-81
2021/08/29 04:47:06;;;;;;;22.60;20.30;;;;;;;13.66;77.23;100219.80;117578;1198;22243;-81
2021/08/29 04:49:41;;;;;;;22.10;19.40;;;;;;;13.72;77.35;100219.65;117557;1195;22154;-81
2021/08/29 04:52:10;;;;;;;21.30;17.70;;;;;;;13.77;77.42;100220.18;117399;1195;21713;-80
2021/08/29 04:54:39;;;;;;;18.60;16.50;;;;;;;13.81;77.41;100213.13;117587;1199;21803;-80
2021/08/29 04:57:09;;;;;;;16.60;15.00;;;;;;;13.88;77.43;100216.72;117956;1200;21725;-80
2021/08/29 04:59:38;;;;;;;18.50;15.80;;;;;;;13.96;77.42;100217.20;117933;1199;21863;-80
2021/08/29 05:02:07;;;;;;;16.80;14.90;;;;;;;14.03;77.41;100219.25;117750;1194;22336;-81
2021/08/29 05:04:37;;;;;;;15.00;13.50;;;;;;;14.08;77.55;100216.51;117907;1197;22210;-80
2021/08/29 05:07:06;;;;;;;17.50;13.10;;;;;;;14.12;77.52;100214.89;117380;1199;22222;-80
2021/08/29 05:09:36;;;;;;;15.60;12.10;;;;;;;14.20;77.48;100220.22;117516;1198;21873;-81
2021/08/29 05:12:06;;;;;;;16.20;13.00;;;;;;;14.25;77.44;100221.06;117425;1201;21717;-81
2021/08/29 05:14:36;;;;;;;13.00;11.90;;;;;;;14.32;77.36;100220.84;117441;1195;21851;-81
2021/08/29 05:17:05;;;;;;;15.40;13.40;;;;;;;14.42;77.34;100225.66;118143;1197;21739;-80
2021/08/29 05:19:37;;;;;;;12.60;11.40;;;;;;;14.46;77.19;100229.02;118127;1198;21854;-81
2021/08/29 05:22:28;;;;;;;13.50;12.40;;;;;;;14.55;77.08;100232.14;117502;1201;21827;-81
2021/08/29 05:25:23;;;;;;;14.10;12.80;;;;;;;14.56;76.98;100231.66;117189;1201;21867;-81
2021/08/29 05:27:53;;;;;;;16.50;13.40;;;;;;;14.63;76.93;100233.83;117267;1201;21733;-81
2021/08/29 05:30:23;;;;;;;15.30;13.50;;;;;;;14.71;76.84;100236.44;117088;1197;22125;-81
2021/08/29 05:32:52;;;;;;;14.60;13.00;;;;;;;14.75;76.72;100230.16;116758;1205;21870;-80
2021/08/29 05:35:22;;;;;;;15.60;14.10;;;;;;;14.84;76.67;100227.05;116524;1206;21725;-83
2021/08/29 05:38:06;;;;;;;19.00;17.20;;;;;;;14.94;76.63;100229.49;116569;1209;21728;-82
2021/08/29 05:40:56;;;;;;;14.00;12.60;;;;;;;15.02;76.56;100223.05;116535;1204;21958;-81
2021/08/29 05:43:45;;;;;;;12.90;11.60;;;;;;;15.15;76.47;100226.38;116615;1207;21838;-82
2021/08/29 05:46:35;;;;;;;13.40;12.10;;;;;;;15.23;76.00;100227.65;116571;1207;21811;-82
2021/08/29 05:49:04;;;;;;;15.30;11.30;;;;;;;15.27;75.91;100226.69;116631;1203;21720;-83
2021/08/29 05:51:33;;;;;;;13.60;12.10;;;;;;;15.36;75.55;100224.27;116733;1204;22237;-84
2021/08/29 05:54:04;;;;;;;13.60;12.50;;;;;;;15.44;75.36;100225.49;117153;1200;21786;-83
2021/08/29 05:56:33;;;;;;;14.20;12.90;;;;;;;15.52;75.19;100226.11;117300;1200;22138;-82
2021/08/29 05:59:04;;;;;;;14.50;12.30;;;;;;;15.58;74.90;100225.75;117428;1199;21826;-83
2021/08/29 06:01:33;;;;;;;15.70;14.10;;;;;;;15.63;74.73;100223.73;117364;1195;21882;-82
2021/08/29 06:04:04;;;;;;;16.40;13.80;;;;;;;15.73;74.41;100230.48;117520;1199;21812;-82
2021/08/29 06:06:49;;;;;;;15.80;13.50;;;;;;;15.75;74.25;100229.90;118003;1195;21799;-82
2021/08/29 06:09:20;;;;;;;14.90;13.40;;;;;;;15.80;73.86;100229.52;117985;1198;21827;-82
2021/08/29 06:11:49;;;;;;;13.10;11.80;;;;;;;15.80;73.59;100230.27;117626;1200;21813;-81
2021/08/29 06:14:18;;;;;;;16.10;14.50;;;;;;;15.83;73.61;100229.33;117606;1200;21816;-82
2021/08/29 06:16:48;;;;;;;14.00;12.40;;;;;;;15.91;73.78;100226.58;117270;1202;21833;-83
2021/08/29 06:19:24;;;;;;;14.60;13.40;;;;;;;16.06;73.98;100229.81;116773;1201;21817;-82
2021/08/29 06:21:54;;;;;;;14.90;13.40;;;;;;;16.20;74.10;100232.27;116695;1206;22133;-83
2021/08/29 06:24:23;;;;;;;13.10;11.90;;;;;;;16.38;73.77;100232.09;116738;1201;22116;-82
2021/08/29 06:27:12;;;;;;;12.70;11.50;;;;;;;16.54;73.19;100232.83;116842;1203;21837;-82
2021/08/29 06:30:00;;;;;;;12.50;11.30;;;;;;;16.66;72.26;100232.21;116667;1205;22122;-83
2021/08/29 06:32:48;;;;;;;13.50;12.20;;;;;;;16.70;71.78;100233.27;116686;1206;22245;-81
2021/08/29 06:35:20;;;;;;;12.30;11.00;;;;;;;16.80;71.63;100230.02;116799;1202;21791;-82
2021/08/29 06:38:02;;;;;;;;;;;;;;;16.85;71.22;100217.80;117181;1201;22268;-82
2021/08/29 06:40:31;;;;;;;11.50;10.60;;;;;;;16.86;71.31;100218.80;117693;1198;22227;-81
2021/08/29 06:43:00;;;;;;;13.30;10.30;;;;;;;16.93;71.37;100219.84;117956;1196;21877;-81
2021/08/29 06:45:50;;;;;;;11.30;10.40;;;;;;;17.05;71.16;100212.48;117909;1196;22276;-81
2021/08/29 06:48:46;;;;;;;13.00;11.80;;;;;;;17.19;71.02;100215.09;118078;1195;21822;-81
2021/08/29 06:51:47;;;;;;;11.30;10.20;;;;;;;17.29;70.40;100215.37;118145;1194;21832;-80
2021/08/29 06:54:35;;;;;;;11.90;10.90;;;;;;;17.37;70.16;100222.05;118178;1197;21774;-78
2021/08/29 06:57:25;;;;;;;11.50;10.40;;;;;;;17.47;70.17;100211.09;118190;1194;22139;-79
2021/08/29 06:59:54;;;;;;;12.10;11.00;;;;;;;17.63;70.10;100216.40;118082;1193;21872;-79
2021/08/29 07:02:23;;;;;;;11.90;10.90;;;;;;;17.76;70.03;100216.17;117463;1199;21917;-80
2021/08/29 07:04:53;;;;;;;11.60;10.40;;;;;;;17.96;69.79;100219.52;117585;1201;21748;-79
2021/08/29 07:07:22;;;;;;;11.60;10.50;;;;;;;18.14;69.23;100225.33;117391;1198;21791;-80
2021/08/29 07:09:51;;;;;;;11.20;10.10;;;;;;;18.28;68.51;100225.52;117675;1198;22234;-79
2021/08/29 07:12:20;;;;;;;16.80;15.20;;;;;;;18.36;67.99;100224.33;117999;1192;22071;-79
2021/08/29 07:14:55;;;;;;;12.00;10.90;;;;;;;18.54;68.03;100232.23;117233;1202;21745;-79
2021/08/29 07:17:24;;;;;;;12.20;10.60;;;;;;;18.70;67.74;100233.13;117294;1202;21739;-79
2021/08/29 07:19:54;;;;;;;11.00;10.00;;;;;;;18.92;67.74;100230.76;116796;1201;21877;-79
2021/08/29 07:22:42;;;;;;;10.30;9.40;;;;;;;19.23;67.42;100237.92;117307;1202;21858;-79
2021/08/29 07:25:30;;;;;;;10.10;9.20;;;;;;;19.53;66.79;100230.39;117240;1198;21888;-79
2021/08/29 07:28:18;;;;;;;9.60;8.40;;;;;;;19.89;65.81;100223.85;117327;1198;21800;-80
2021/08/29 07:31:22;;;;;;;15.90;10.60;;;;;;;20.08;63.21;100223.38;117255;1199;21794;-80
2021/08/29 07:33:52;;;;;;;9.90;8.90;;;;;;;20.12;62.22;100222.98;117532;1198;21881;-79
2021/08/29 07:36:33;;;;;;;;;;;;;;;20.24;62.76;100217.39;117980;1197;21785;-81
2021/08/29 07:39:11;;;;;;;13.00;11.80;;;;;;;20.52;63.53;100219.21;118239;1195;21810;-82
2021/08/29 07:41:41;;;;;;;10.10;9.20;;;;;;;20.83;63.22;100215.35;118009;1195;22101;-82
2021/08/29 07:44:10;;;;;;;14.70;13.40;;;;;;;21.26;62.57;100214.69;118127;1197;21827;-82
2021/08/29 07:46:39;;;;;;;10.40;9.20;;;;;;;21.68;61.19;100218.72;118006;1195;21819;-82
2021/08/29 07:49:09;;;;;;;10.60;9.20;;;;;;;21.90;58.82;100217.27;117389;1198;21728;-83
2021/08/29 07:51:38;;;;;;;12.60;9.60;;;;;;;21.96;57.63;100223.13;117251;1198;21843;-82
2021/08/29 07:54:28;;;;;;;10.40;7.80;;;;;;;21.96;57.11;100218.06;116995;1203;22069;-81
2021/08/29 07:57:17;;;;;;;8.70;7.80;;;;;;;22.05;57.08;100219.77;116869;1202;21778;-82
2021/08/29 07:59:47;;;;;;;10.10;8.60;;;;;;;22.09;56.63;100218.17;116658;1204;22288;-83
2021/08/29 08:02:17;;;;;;;12.30;9.00;;;;;;;22.12;56.34;100219.77;116721;1202;21819;-82
2021/08/29 08:05:07;;;;;;;9.30;8.20;;;;;;;22.09;55.35;100216.54;116458;1204;21799;-82
2021/08/29 08:07:59;;;;;;;9.80;8.90;;;;;;;21.95;55.15;100218.12;116810;1201;21877;-82
2021/08/29 08:10:47;;;;;;;9.90;9.00;;;;;;;21.80;55.35;100213.15;116798;1201;22246;-82
2021/08/29 08:13:26;;;;;;;9.70;8.30;;;;;;;21.75;55.62;100213.19;117094;1199;21835;-81
2021/08/29 08:15:56;;;;;;;9.00;8.20;;;;;;;21.71;55.46;100210.33;116814;1203;21766;-82
2021/08/29 08:18:26;;;;;;;13.50;9.10;;;;;;;21.60;54.89;100213.59;117210;1201;21809;-80
2021/08/29 08:20:55;;;;;;;10.00;8.60;;;;;;;21.41;54.95;100209.17;117507;1194;21874;-81
2021/08/29 08:23:47;;;;;;;9.30;8.10;;;;;;;21.27;55.70;100207.99;117707;1198;22317;-82
2021/08/29 08:26:35;;;;;;;9.20;7.80;;;;;;;21.19;55.91;100207.73;117938;1197;21851;-82
2021/08/29 08:29:26;;;;;;;9.20;8.40;;;;;;;21.12;56.12;100202.20;118026;1198;21745;-82
2021/08/29 08:32:14;;;;;;;8.80;7.90;;;;;;;21.11;56.27;100201.59;117968;1198;21848;-81
2021/08/29 08:35:04;;;;;;;9.50;8.60;;;;;;;21.11;56.12;100198.05;118146;1192;21842;-81
2021/08/29 08:37:53;;;;;;;10.70;7.80;;;;;;;21.10;55.68;100201.68;117963;1192;21833;-82
2021/08/29 08:40:43;;;;;;;8.40;6.80;;;;;;;21.08;55.47;100206.27;117974;1198;21870;-81
2021/08/29 08:43:17;;;;;;;11.50;6.30;;;;;;;21.00;55.30;100199.71;117970;1193;21838;-81
2021/08/29 08:46:07;;;;;;;7.20;6.50;;;;;;;20.91;55.11;100199.81;117977;1197;21788;-82
2021/08/29 08:49:09;;;;;;;6.60;6.00;;;;;;;20.78;55.46;100191.23;117657;1199;21869;-82
2021/08/29 08:52:06;;;;;;;7.90;7.10;;;;;;;20.72;55.57;100193.38;117485;1196;21844;-81
2021/08/29 08:54:59;;;;;;;9.40;7.10;;;;;;;20.64;55.98;100194.69;117471;1197;21855;-82
2021/08/29 08:57:50;;;;;;;7.20;5.90;;;;;;;20.65;56.62;100183.44;116859;1201;21843;-81
2021/08/29 09:00:31;;;;;;;8.50;6.70;;;;;;;20.80;56.79;100191.06;117381;1197;22238;-82
2021/08/29 09:03:21;;;;;;;7.20;6.30;;;;;;;20.86;56.43;100183.30;117608;1196;21903;-82
2021/08/29 09:06:09;;;;;;;7.80;6.70;;;;;;;20.95;56.69;100179.37;117444;1201;21811;-82
2021/08/29 09:08:38;;;;;;;7.30;6.60;;;;;;;21.14;56.59;100184.01;117469;1194;21824;-82
2021/08/29 09:11:07;;;;;;;9.40;7.80;;;;;;;21.33;56.66;100181.41;117987;1198;21818;-82
2021/08/29 09:13:46;;;;;;;5.90;5.30;;;;;;;21.67;56.32;100189.17;118154;1197;21786;-82
2021/08/29 09:16:20;;;;;;;5.30;4.70;;;;;;;21.87;55.04;100187.77;118219;1197;21796;-82
2021/08/29 09:18:53;;;;;;;7.10;4.80;;;;;;;22.03;54.13;100185.80;118169;1193;21841;-82
2021/08/29 09:21:34;;;;;;;5.40;4.50;;;;;;;22.19;52.93;100185.50;117902;1197;21841;-80
2021/08/29 09:24:13;;;;;;;4.70;4.10;;;;;;;22.33;52.31;100184.79;116845;1202;21809;-81
2021/08/29 09:27:11;;;;;;;5.20;4.50;;;;;;;22.37;51.58;100188.00;116861;1199;21833;-81
2021/08/29 09:29:51;;;;;;;4.90;4.40;;;;;;;22.35;51.16;100183.62;116822;1202;21847;-81
2021/08/29 09:32:20;;;;;;;5.80;5.30;;;;;;;22.42;51.60;100183.01;116660;1206;22174;-82
2021/08/29 09:35:04;;;;;;;6.60;4.70;;;;;;;22.62;51.11;100186.64;116649;1203;21868;-82
2021/08/29 09:37:56;;;;;;;4.90;4.40;;;;;;;22.71;50.14;100187.83;116709;1204;22211;-82
2021/08/29 09:40:44;;;;;;;8.00;7.10;;;;;;;22.80;49.93;100188.79;117167;1203;21867;-82
2021/08/29 09:43:34;;;;;;;6.60;5.30;;;;;;;22.90;50.16;100175.56;117682;1199;21889;-82
2021/08/29 09:46:07;;;;;;;5.60;5.10;;;;;;;23.06;50.14;100171.64;117492;1194;21850;-81
2021/08/29 09:48:57;;;;;;;4.70;3.70;;;;;;;23.26;49.25;100177.64;116890;1201;22271;-83
2021/08/29 09:51:50;;;;;;;4.60;4.10;;;;;;;23.40;47.86;100175.02;116965;1204;21791;-84
2021/08/29 09:54:43;;;;;;;5.00;4.50;;;;;;;23.35;47.08;100173.20;117239;1201;21787;-82
2021/08/29 09:57:33;;;;;;;9.70;8.80;;;;;;;23.33;47.64;100172.90;116669;1202;22275;-83
2021/08/29 10:00:26;;;;;;;11.10;7.50;;;;;;;23.33;47.57;100167.84;116666;1204;21860;-83
2021/08/29 10:03:06;;;;;;;6.70;5.80;;;;;;;23.39;47.40;100172.09;116605;1205;21736;-83
2021/08/29 10:06:16;;;;;;;4.80;4.20;;;;;;;23.45;47.28;100171.67;116668;1204;21833;-83
2021/08/29 10:08:50;;;;;;;4.90;4.40;;;;;;;23.40;46.76;100172.21;116827;1202;21818;-84
2021/08/29 10:11:29;;;;;;;4.60;4.10;;;;;;;23.31;46.93;100165.02;117357;1201;21842;-83
2021/08/29 10:14:00;;;;;;;5.50;4.80;;;;;;;23.27;46.92;100166.83;117378;1201;21773;-84
2021/08/29 10:16:31;;;;;;;5.10;4.20;;;;;;;23.19;46.94;100166.05;117923;1198;22251;-82
2021/08/29 10:19:00;;;;;;;5.90;4.20;;;;;;;23.07;47.09;100165.13;117243;1201;21808;-84
2021/08/29 10:21:49;;;;;;;8.00;4.30;;;;;;;23.05;47.53;100167.76;117717;1199;21824;-84
2021/08/29 10:24:20;;;;;;;;;;;;;;;23.10;47.35;100166.08;117635;1195;21866;-84
2021/08/29 10:26:54;;;;;;;7.00;5.00;;;;;;;23.01;47.19;100164.10;117277;1198;21882;-83
2021/08/29 10:29:32;;;;;;;5.70;5.10;;;;;;;23.02;47.30;100166.36;117245;1203;21851;-82
2021/08/29 10:32:18;;;;;;;5.80;4.40;;;;;;;23.03;47.23;100166.70;117113;1201;22121;-83
2021/08/29 10:35:10;;;;;;;5.10;4.60;;;;;;;22.95;47.31;100167.27;117279;1200;21719;-83
2021/08/29 10:37:46;;;;;;;5.90;5.20;;;;;;;22.76;47.17;100172.15;116733;1202;21782;-83
2021/08/29 10:40:38;;;;;;;5.20;4.70;;;;;;;22.60;47.29;100164.39;116611;1206;21755;-83
2021/08/29 10:43:22;;;;;;;5.30;4.80;;;;;;;22.51;47.20;100168.96;116432;1207;21763;-83
2021/08/29 10:46:14;;;;;;;5.80;5.20;;;;;;;22.36;47.57;100162.85;116400;1208;21753;-83
2021/08/29 10:49:02;;;;;;;7.60;5.40;;;;;;;22.25;48.22;100168.25;116460;1207;21718;-84
2021/08/29 10:51:47;;;;;;;6.20;4.30;;;;;;;22.11;48.68;100161.60;116454;1205;21847;-83
2021/08/29 10:54:17;;;;;;;5.50;4.50;;;;;;;22.07;48.97;100167.61;116482;1208;22310;-84
2021/08/29 10:56:48;;;;;;;6.00;4.70;;;;;;;22.04;49.07;100166.63;116662;1204;21783;-84
2021/08/29 10:59:26;;;;;;;4.90;4.20;;;;;;;22.09;48.66;100170.80;117150;1201;21852;-83
2021/08/29 11:02:16;;;;;;;9.50;7.80;;;;;;;22.09;48.16;100172.35;117874;1198;21819;-82
2021/08/29 11:05:07;;;;;;;9.40;7.40;;;;;;;22.06;48.47;100169.05;118251;1193;22080;-82
2021/08/29 11:07:49;;;;;;;6.80;4.40;;;;;;;22.10;48.37;100167.02;118233;1192;21832;-82
2021/08/29 11:10:37;;;;;;;4.60;3.80;;;;;;;22.06;48.63;100161.36;118183;1193;21787;-82
2021/08/29 11:13:34;;;;;;;5.00;3.70;;;;;;;22.08;48.04;100160.90;118335;1192;21790;-83
2021/08/29 11:16:27;;;;;;;4.70;3.70;;;;;;;22.11;47.41;100160.84;118306;1194;21779;-82
2021/08/29 11:19:37;;;;;;;5.90;4.40;;;;;;;22.08;46.91;100159.23;117308;1200;21837;-82
2021/08/29 11:22:41;;;;;;;5.60;4.50;;;;;;;22.10;47.14;100159.15;117034;1202;21897;-83
2021/08/29 11:25:29;;;;;;;7.70;4.40;;;;;;;22.13;47.14;100157.33;116726;1205;21776;-83
2021/08/29 11:28:31;;;;;;;6.40;4.20;;;;;;;22.17;46.99;100157.98;116563;1204;21809;-82
2021/08/29 11:31:53;;;;;;;6.70;6.00;;;;;;;22.15;47.46;100149.23;116403;1208;21815;-83
2021/08/29 11:34:31;;;;;;;7.00;5.60;;;;;;;22.12;48.25;100151.44;116393;1210;22167;-84
2021/08/29 11:37:24;;;;;;;8.60;5.40;;;;;;;22.10;48.76;100152.42;116336;1205;21796;-84
2021/08/29 11:40:12;;;;;;;7.10;5.30;;;;;;;22.14;48.75;100160.63;116374;1208;21814;-84
2021/08/29 11:42:42;;;;;;;6.40;5.00;;;;;;;22.10;48.87;100155.65;116408;1204;22507;-84
2021/08/29 11:45:13;;;;;;;6.10;5.10;;;;;;;22.07;48.84;100159.17;116359;1208;21864;-84
2021/08/29 11:47:44;;;;;;;7.60;7.00;;;;;;;22.02;49.34;100159.64;116507;1209;21866;-84
2021/08/29 11:50:27;;;;;;;5.50;5.00;;;;;;;21.99;49.50;100162.01;116593;1204;21726;-84
2021/08/29 11:53:49;;;;;;;5.50;5.00;;;;;;;21.89;49.54;100156.73;116642;1207;21869;-84
2021/08/29 11:56:21;;;;;;;7.10;6.40;;;;;;;21.88;49.49;100159.00;116728;1203;21859;-85